sensor_id;sensor_type;location;lat;lon;timestamp;P1;durP1;ratioP1;P2;durP2;ratioP2
53642;SDS011;39546;45.534;12.048;2022-09-13T08:25:39;2.22;;;1.48;;
53642;SDS011;39546;45.534;12.048;2022-09-13T08:31:41;4.10;;;1.83;;
53642;SDS011;39546;45.534;12.048;2022-09-13T08:37:44;2.60;;;1.42;;
53642;SDS011;39546;45.534;12.048;2022-09-13T08:44:01;3.17;;;2.00;;
53642;SDS011;39546;45.534;12.048;2022-09-13T08:50:13;4.07;;;1.98;;
53642;SDS011;39546;45.534;12.048;2022-09-13T09:09:15;1.83;;;0.98;;
53642;SDS011;39546;45.534;12.048;2022-09-13T09:21:24;5.47;;;1.75;;
53642;SDS011;39546;45.534;12.048;2022-09-13T09:27:29;10.95;;;1.27;;
53642;SDS011;39546;45.534;12.048;2022-09-13T09:40:43;2.05;;;1.05;;
53642;SDS011;39546;45.534;12.048;2022-09-13T09:46:50;0.82;;;0.73;;
53642;SDS011;39546;45.534;12.048;2022-09-13T10:05:26;2.12;;;1.23;;
53642;SDS011;39546;45.534;12.048;2022-09-13T10:11:37;1.58;;;0.95;;
53642;SDS011;39546;45.534;12.048;2022-09-13T10:24:19;3.03;;;0.70;;
53642;SDS011;39546;45.534;12.048;2022-09-13T10:37:11;1.27;;;0.75;;
53642;SDS011;39546;45.534;12.048;2022-09-13T10:43:31;0.43;;;0.40;;
53642;SDS011;39546;45.534;12.048;2022-09-13T10:49:35;1.08;;;0.70;;
53642;SDS011;39546;45.534;12.048;2022-09-13T10:55:52;3.17;;;0.88;;
53642;SDS011;39546;45.534;12.048;2022-09-13T11:20:44;2.67;;;1.37;;
53642;SDS011;39546;45.534;12.048;2022-09-13T11:33:33;4.93;;;1.30;;
53642;SDS011;39546;45.534;12.048;2022-09-13T11:46:16;0.62;;;0.62;;
53642;SDS011;39546;45.534;12.048;2022-09-13T11:59:20;2.22;;;1.08;;
53642;SDS011;39546;45.534;12.048;2022-09-13T12:05:55;1.60;;;1.27;;
53642;SDS011;39546;45.534;12.048;2022-09-13T12:18:30;2.40;;;1.55;;
53642;SDS011;39546;45.534;12.048;2022-09-13T12:24:49;1.52;;;1.20;;
53642;SDS011;39546;45.534;12.048;2022-09-13T12:31:25;2.45;;;1.30;;
53642;SDS011;39546;45.534;12.048;2022-09-13T12:56:58;1.85;;;1.27;;
53642;SDS011;39546;45.534;12.048;2022-09-13T13:03:20;1.50;;;0.75;;
53642;SDS011;39546;45.534;12.048;2022-09-13T13:09:43;1.83;;;0.77;;
53642;SDS011;39546;45.534;12.048;2022-09-13T13:21:51;4.00;;;1.45;;
53642;SDS011;39546;45.534;12.048;2022-09-13T13:27:54;1.45;;;1.02;;
53642;SDS011;39546;45.534;12.048;2022-09-13T13:58:32;0.73;;;0.73;;
53642;SDS011;39546;45.534;12.048;2022-09-13T14:23:36;2.97;;;0.65;;
53642;SDS011;39546;45.534;12.048;2022-09-13T14:29:38;2.78;;;0.50;;
53642;SDS011;39546;45.534;12.048;2022-09-13T14:35:40;3.70;;;0.60;;
53642;SDS011;39546;45.534;12.048;2022-09-13T14:41:43;2.67;;;0.98;;
53642;SDS011;39546;45.534;12.048;2022-09-13T14:48:02;1.05;;;0.60;;
53642;SDS011;39546;45.534;12.048;2022-09-13T14:54:43;0.95;;;0.68;;
53642;SDS011;39546;45.534;12.048;2022-09-13T15:00:55;2.83;;;0.70;;
53642;SDS011;39546;45.534;12.048;2022-09-13T15:07:17;2.97;;;1.27;;
53642;SDS011;39546;45.534;12.048;2022-09-13T15:13:43;0.52;;;0.45;;
53642;SDS011;39546;45.534;12.048;2022-09-13T15:19:47;1.65;;;0.55;;
53642;SDS011;39546;45.534;12.048;2022-09-13T15:25:57;1.25;;;0.77;;
53642;SDS011;39546;45.534;12.048;2022-09-13T15:32:00;1.33;;;0.80;;
53642;SDS011;39546;45.534;12.048;2022-09-13T15:38:16;2.08;;;1.17;;
53642;SDS011;39546;45.534;12.048;2022-09-13T15:44:23;2.37;;;1.08;;
53642;SDS011;39546;45.534;12.048;2022-09-13T15:50:32;0.98;;;0.57;;
53642;SDS011;39546;45.534;12.048;2022-09-13T15:56:34;3.55;;;0.90;;
53642;SDS011;39546;45.534;12.048;2022-09-13T16:02:46;10.85;;;1.23;;
53642;SDS011;39546;45.534;12.048;2022-09-13T16:08:48;4.00;;;1.00;;
53642;SDS011;39546;45.534;12.048;2022-09-13T16:14:50;0.52;;;0.52;;
53642;SDS011;39546;45.534;12.048;2022-09-13T16:20:52;1.75;;;0.60;;
53642;SDS011;39546;45.534;12.048;2022-09-13T16:27:10;1.45;;;0.90;;
53642;SDS011;39546;45.534;12.048;2022-09-13T16:33:14;1.52;;;0.80;;
53642;SDS011;39546;45.534;12.048;2022-09-13T16:39:16;1.65;;;0.57;;
53642;SDS011;39546;45.534;12.048;2022-09-13T16:45:44;2.50;;;0.75;;
53642;SDS011;39546;45.534;12.048;2022-09-13T16:52:02;3.45;;;0.95;;
53642;SDS011;39546;45.534;12.048;2022-09-13T16:58:04;0.47;;;0.47;;
53642;SDS011;39546;45.534;12.048;2022-09-13T17:04:10;1.02;;;0.50;;
53642;SDS011;39546;45.534;12.048;2022-09-13T17:10:12;0.82;;;0.73;;
53642;SDS011;39546;45.534;12.048;2022-09-13T17:16:19;1.05;;;0.62;;
53642;SDS011;39546;45.534;12.048;2022-09-13T17:22:21;0.45;;;0.45;;
53642;SDS011;39546;45.534;12.048;2022-09-13T17:28:23;0.77;;;0.55;;
53642;SDS011;39546;45.534;12.048;2022-09-13T17:34:26;1.70;;;1.05;;
53642;SDS011;39546;45.534;12.048;2022-09-13T17:40:28;3.92;;;0.50;;
53642;SDS011;39546;45.534;12.048;2022-09-13T17:47:09;0.50;;;0.40;;
53642;SDS011;39546;45.534;12.048;2022-09-13T17:53:11;0.68;;;0.60;;
53642;SDS011;39546;45.534;12.048;2022-09-13T17:59:15;1.12;;;1.00;;
53642;SDS011;39546;45.534;12.048;2022-09-13T18:05:19;1.10;;;0.80;;
53642;SDS011;39546;45.534;12.048;2022-09-13T18:11:21;2.65;;;1.20;;
53642;SDS011;39546;45.534;12.048;2022-09-13T18:17:35;1.35;;;0.77;;
53642;SDS011;39546;45.534;12.048;2022-09-13T18:23:38;1.08;;;0.90;;
53642;SDS011;39546;45.534;12.048;2022-09-13T18:29:41;3.15;;;0.80;;
53642;SDS011;39546;45.534;12.048;2022-09-13T18:36:04;1.05;;;0.52;;
53642;SDS011;39546;45.534;12.048;2022-09-13T18:42:08;1.35;;;0.95;;
53642;SDS011;39546;45.534;12.048;2022-09-13T18:48:10;2.30;;;1.10;;
53642;SDS011;39546;45.534;12.048;2022-09-13T18:54:13;2.97;;;1.33;;
53642;SDS011;39546;45.534;12.048;2022-09-13T19:00:17;4.43;;;0.68;;
53642;SDS011;39546;45.534;12.048;2022-09-13T19:12:25;1.42;;;0.57;;
53642;SDS011;39546;45.534;12.048;2022-09-13T19:18:37;1.02;;;0.57;;
53642;SDS011;39546;45.534;12.048;2022-09-13T19:24:41;0.43;;;0.30;;
53642;SDS011;39546;45.534;12.048;2022-09-13T19:30:44;2.20;;;0.68;;
53642;SDS011;39546;45.534;12.048;2022-09-13T19:36:51;2.33;;;0.77;;
53642;SDS011;39546;45.534;12.048;2022-09-13T19:42:57;1.40;;;0.60;;
53642;SDS011;39546;45.534;12.048;2022-09-13T19:49:00;1.17;;;0.77;;
53642;SDS011;39546;45.534;12.048;2022-09-13T19:55:02;1.27;;;0.32;;
53642;SDS011;39546;45.534;12.048;2022-09-13T20:01:09;1.52;;;0.85;;
53642;SDS011;39546;45.534;12.048;2022-09-13T20:07:15;3.08;;;0.65;;
53642;SDS011;39546;45.534;12.048;2022-09-13T20:13:17;0.40;;;0.40;;
53642;SDS011;39546;45.534;12.048;2022-09-13T20:19:21;0.93;;;0.60;;
53642;SDS011;39546;45.534;12.048;2022-09-13T20:25:24;0.40;;;0.40;;
53642;SDS011;39546;45.534;12.048;2022-09-13T20:31:27;1.75;;;0.82;;
53642;SDS011;39546;45.534;12.048;2022-09-13T20:37:31;3.92;;;1.17;;
53642;SDS011;39546;45.534;12.048;2022-09-13T20:43:48;2.92;;;0.90;;
53642;SDS011;39546;45.534;12.048;2022-09-13T20:50:06;1.10;;;0.62;;
53642;SDS011;39546;45.534;12.048;2022-09-13T20:56:09;1.42;;;0.85;;
53642;SDS011;39546;45.534;12.048;2022-09-13T21:02:16;0.73;;;0.67;;
53642;SDS011;39546;45.534;12.048;2022-09-13T21:08:18;1.10;;;0.60;;
53642;SDS011;39546;45.534;12.048;2022-09-13T21:15:06;2.28;;;1.33;;
53642;SDS011;39546;45.534;12.048;2022-09-13T21:21:12;2.35;;;1.17;;
53642;SDS011;39546;45.534;12.048;2022-09-13T21:27:18;0.98;;;0.85;;
53642;SDS011;39546;45.534;12.048;2022-09-13T21:33:20;1.62;;;0.85;;
53642;SDS011;39546;45.534;12.048;2022-09-13T21:45:43;1.45;;;0.82;;
53642;SDS011;39546;45.534;12.048;2022-09-13T21:51:47;2.60;;;1.60;;
53642;SDS011;39546;45.534;12.048;2022-09-13T21:57:50;1.15;;;0.95;;
53642;SDS011;39546;45.534;12.048;2022-09-13T22:03:52;2.03;;;1.27;;
53642;SDS011;39546;45.534;12.048;2022-09-13T22:09:55;2.47;;;1.40;;
53642;SDS011;39546;45.534;12.048;2022-09-13T22:16:11;2.10;;;0.98;;
53642;SDS011;39546;45.534;12.048;2022-09-13T22:22:16;3.55;;;2.50;;
53642;SDS011;39546;45.534;12.048;2022-09-13T22:28:22;4.05;;;1.80;;
53642;SDS011;39546;45.534;12.048;2022-09-13T22:34:39;3.47;;;2.13;;
53642;SDS011;39546;45.534;12.048;2022-09-13T22:40:41;3.58;;;2.42;;
53642;SDS011;39546;45.534;12.048;2022-09-13T22:46:43;4.00;;;2.47;;
53642;SDS011;39546;45.534;12.048;2022-09-13T22:52:46;5.15;;;1.87;;
53642;SDS011;39546;45.534;12.048;2022-09-13T22:58:52;3.55;;;2.12;;
53642;SDS011;39546;45.534;12.048;2022-09-13T23:04:57;3.10;;;2.22;;
53642;SDS011;39546;45.534;12.048;2022-09-13T23:11:09;3.12;;;1.83;;
53642;SDS011;39546;45.534;12.048;2022-09-13T23:17:13;4.20;;;1.83;;
53642;SDS011;39546;45.534;12.048;2022-09-13T23:23:16;2.85;;;2.00;;
53642;SDS011;39546;45.534;12.048;2022-09-13T23:29:18;4.47;;;2.22;;
53642;SDS011;39546;45.534;12.048;2022-09-13T23:35:20;2.67;;;1.70;;
53642;SDS011;39546;45.534;12.048;2022-09-13T23:41:25;3.62;;;2.10;;
53642;SDS011;39546;45.534;12.048;2022-09-13T23:48:03;2.60;;;1.42;;
53642;SDS011;39546;45.534;12.048;2022-09-13T23:54:05;3.05;;;2.22;;
